Flight Track Log - Related Links

Times and Time Zones

All times are in EDT time to prevent confusion due to time zone crossing. See the N1808R flight status page for this flight to view local times or setup timezone preferences in your user account.

Time Position Orientation Groundspeed Altitude Reporting Facility
EDT Latitude Longitude Course Direction KTS MPH feet Rate Location/Type
Mon 12:00:08 PM 28.7286 -99.6319 41° Northeast 148 170 7,600  Level Houston Center
Mon 12:01:11 PM 28.7656 -99.6011 36° Northeast 159 183 8,100 480 Climbing Houston Center
Mon 12:02:13 PM 28.8022 -99.5722 35° Northeast 161 185 8,600 484 Climbing Houston Center
Mon 12:03:15 PM 28.8392 -99.5400 37° Northeast 164 189 9,100 581 Climbing Houston Center
Mon 12:04:17 PM 28.8761 -99.5094 36° Northeast 164 189 9,800 677 Climbing Houston Center
Mon 12:05:00 PM 28.7011 -99.6911 41° Northeast  Level Estimated
Mon 12:05:19 PM 28.9194 -99.4822 29° Northeast 175 201 10,500  Level Houston Center
Mon 12:06:21 PM 28.9650 -99.4489 33° Northeast 168 193 11,200 581 Climbing Houston Center
Mon 12:07:23 PM 28.9994 -99.4125 43° Northeast 167 192 11,700 532 Climbing Houston Center
Mon 12:08:25 PM 29.0347 -99.3758 42° Northeast 169 194 12,300 576 Climbing Houston Center
Mon 12:09:28 PM 29.0719 -99.3386 41° Northeast 175 201 12,900 576 Climbing Houston Center
Mon 12:10:30 PM 29.1150 -99.2986 39° Northeast 178 205 13,500 532 Climbing Houston Center
Mon 12:11:32 PM 29.1600 -99.2639 34° Northeast 180 207 14,000 484 Climbing Houston Center
Mon 12:12:34 PM 29.2022 -99.2319 33° Northeast 182 209 14,500 484 Climbing Houston Center
Mon 12:13:36 PM 29.2469 -99.1964 35° Northeast 182 209 15,000 435 Climbing Houston Center
Mon 12:14:38 PM 29.2892 -99.1628 35° Northeast 185 213 15,400 242 Climbing Houston Center
Mon 12:15:40 PM 29.3322 -99.1214 40° Northeast 188 216 15,500 48 Climbing Houston Center
Mon 12:16:42 PM 29.3758 -99.0781 41° Northeast 204 235 15,500  Level Houston Center
Mon 12:17:44 PM 29.4253 -99.0411 33° Northeast 210 242 15,500  Level Houston Center
Mon 12:18:47 PM 29.4717 -98.9989 38° Northeast 200 230 15,500  Level Houston Center
Mon 12:19:49 PM 29.5131 -98.9589 40° Northeast 195 224 15,500  Level Houston Center
Mon 12:20:51 PM 29.5600 -98.9178 37° Northeast 196 226 15,500  Level Houston Center
Mon 12:21:53 PM 29.6025 -98.8794 38° Northeast 195 224 15,500  Level Houston Center
Mon 12:22:55 PM 29.6492 -98.8392 37° Northeast 195 224 15,500  Level Houston Center
Mon 12:23:57 PM 29.6917 -98.8006 38° Northeast 194 223 15,500  Level Houston Center
Mon 12:24:59 PM 29.7375 -98.7600 38° Northeast 193 222 15,500  Level Houston Center
Mon 12:26:01 PM 29.7806 -98.7225 37° Northeast 193 222 15,500  Level Houston Center
Mon 12:27:03 PM 29.8231 -98.6836 38° Northeast 195 224 15,500  Level Houston Center
Mon 12:28:06 PM 29.8703 -98.6422 37° Northeast 197 227 15,500  Level Houston Center
Mon 12:29:08 PM 29.9136 -98.6033 38° Northeast 199 229 15,500  Level Houston Center
Mon 12:30:10 PM 29.9597 -98.5617 38° Northeast 196 226 15,500  Level Houston Center
Mon 12:31:12 PM 30.0031 -98.5231 38° Northeast 197 227 15,500  Level Houston Center
Mon 12:32:14 PM 30.0500 -98.4822 37° Northeast 196 226 15,500  Level Houston Center
Mon 12:33:16 PM 30.0933 -98.4436 38° Northeast 203 234 15,500  Level Houston Center
Mon 12:34:18 PM 30.1411 -98.4003 38° Northeast 197 227 15,500  Level Houston Center
Mon 12:35:20 PM 30.1847 -98.3611 38° Northeast 200 230 15,500  Level Houston Center
Mon 12:36:22 PM 30.2283 -98.3217 38° Northeast 199 229 15,500  Level Houston Center
Mon 12:37:25 PM 30.2756 -98.2783 38° Northeast 200 230 15,500  Level Houston Center
Mon 12:38:27 PM 30.3161 -98.2414 38° Northeast 201 231 15,500  Level Houston Center
Mon 12:39:29 PM 30.3614 -98.2022 37° Northeast 201 231 15,500  Level Houston Center
Mon 12:40:31 PM 30.4131 -98.1553 38° Northeast 200 230 15,500  Level Houston Center
Mon 12:41:33 PM 30.4564 -98.1156 38° Northeast 198 228 15,500  Level Houston Center
Mon 12:42:35 PM 30.5011 -98.0747 38° Northeast 202 232 15,500  Level Houston Center
Mon 12:43:37 PM 30.5447 -98.0347 38° Northeast 199 229 15,500  Level Houston Center
Mon 12:44:39 PM 30.5897 -97.9950 37° Northeast 200 230 15,500  Level Houston Center
Mon 12:45:41 PM 30.6344 -97.9550 38° Northeast 200 230 15,500  Level Houston Center
Mon 12:46:44 PM 30.6789 -97.9136 39° Northeast 202 232 15,500  Level Houston Center
Mon 12:47:46 PM 30.7222 -97.8736 38° Northeast 199 229 15,500  Level Houston Center
Mon 12:48:48 PM 30.7731 -97.8278 38° Northeast 197 227 15,500  Level Houston Center
Mon 12:49:50 PM 30.8172 -97.7878 38° Northeast 198 228 15,500  Level Houston Center
Mon 12:50:52 PM 30.8608 -97.7478 38° Northeast 197 227 15,500  Level Houston Center
Mon 12:51:54 PM 30.9047 -97.7078 38° Northeast 198 228 15,500  Level Houston Center
Mon 12:52:56 PM 30.9492 -97.6675 38° Northeast 199 229 15,500  Level Houston Center
Mon 12:53:58 PM 30.9933 -97.6264 39° Northeast 200 230 15,500  Level Houston Center
Mon 12:55:00 PM 31.0383 -97.5853 38° Northeast 202 232 15,500  Level Houston Center
Mon 12:57:04 PM 31.1278 -97.5025 38° Northeast 203 234 15,500  Level Houston Center
Mon 12:58:06 PM 31.1806 -97.4536 38° Northeast 204 235 15,500  Level Houston Center
Mon 12:59:08 PM 31.2256 -97.4133 37° Northeast 203 234 15,500  Level Houston Center
Mon 01:00:10 PM 31.2753 -97.3797 30° Northeast 202 232 15,500  Level Houston Center
Mon 01:01:12 PM 31.3258 -97.3494 27° Northeast 203 234 15,500  Level Houston Center
Mon 01:02:14 PM 31.3742 -97.3164 30° Northeast 200 230 15,500  Level Houston Center
Mon 01:03:16 PM 31.4219 -97.2814 32° Northeast 200 230 15,500  Level Houston Center
Mon 01:04:18 PM 31.4714 -97.2467 31° Northeast 204 235 15,500  Level Houston Center
Mon 01:05:20 PM 31.5203 -97.2128 31° Northeast 203 234 15,500  Level Houston Center
Mon 01:06:21 PM 31.5781 -97.1747 29° Northeast 203 234 15,500  Level Houston Center
Mon 01:07:21 PM 31.6264 -97.1400 31° Northeast 201 231 15,500  Level Fort Worth Center
Mon 01:08:21 PM 31.6681 -97.1131 29° Northeast 201 231 15,500  Level Fort Worth Center
Mon 01:09:21 PM 31.7161 -97.0811 29° Northeast 206 237 15,500 -350 Level Fort Worth Center
Mon 01:10:21 PM 31.7661 -97.0444 32° Northeast 206 237 14,800 -700 Descending Fort Worth Center
Mon 01:11:21 PM 31.8203 -97.0075 30° Northeast 215 247 14,100 -800 Descending Fort Worth Center
Mon 01:12:21 PM 31.8744 -96.9681 32° Northeast 221 254 13,200 -950 Descending Fort Worth Center
Mon 01:13:21 PM 31.9286 -96.9311 30° Northeast 227 261 12,200 -1,000 Descending Fort Worth Center
Mon 01:14:21 PM 31.9867 -96.8917 30° Northeast 227 261 11,200 -950 Descending Fort Worth Center
Mon 01:15:21 PM 32.0408 -96.8522 32° Northeast 222 255 10,300 -900 Descending Fort Worth Center
Mon 01:16:21 PM 32.0931 -96.8150 31° Northeast 222 255 9,400 -850 Descending Fort Worth Center
Mon 01:17:21 PM 32.1469 -96.7803 29° Northeast 222 255 8,600 -850 Descending Fort Worth Center
Mon 01:18:21 PM 32.1969 -96.7456 30° Northeast 217 250 7,700 -850 Descending Fort Worth Center
Mon 01:19:21 PM 32.2511 -96.7058 32° Northeast 217 250 6,900 -800 Descending Fort Worth Center
Mon 01:20:21 PM 32.3008 -96.6711 31° Northeast 212 244 6,100 -850 Descending Fort Worth Center
Mon 01:21:21 PM 32.3528 -96.6339 31° Northeast 207 238 5,200 -650 Descending Fort Worth Center
Mon 01:22:21 PM 32.4008 -96.6014 30° Northeast 207 238 4,800 -400 Descending Fort Worth Center
Mon 01:23:21 PM 32.4486 -96.5667 32° Northeast 201 231 4,400 -400 Descending Fort Worth Center
Mon 01:24:21 PM 32.4964 -96.5414 24° Northeast 194 223 4,000 -450 Descending Fort Worth Center
Mon 01:25:21 PM 32.5506 -96.5361 North 187 215 3,500 -450 Descending Fort Worth Center
Mon 01:26:21 PM 32.6047 -96.5256 North 187 215 3,100 -500 Descending Fort Worth Center
Mon 01:27:21 PM 32.6569 -96.5153 North 187 215 2,500 -600 Descending Fort Worth Center
Mon 01:28:21 PM 32.7069 -96.5122 North 187 215 1,900 -500 Descending Fort Worth Center
Mon 01:29:21 PM 32.7508 -96.5044 North 165 190 1,500 -450 Descending Fort Worth Center
Mon 01:30:21 PM 32.7803 -96.5264 328° Northwest 132 152 1,000 -200 Descending Fort Worth Center
Mon 01:31:21 PM 32.7675 -96.5092 131° Southeast 77 89 1,100 -200 Climbing Fort Worth Center
Mon 01:32:21 PM 32.7636 -96.5339 259° West 43 49 600 -500 Descending Fort Worth Center

Login

Don't have an account? Register now (free) for customized features, flight alerts, and more!